Meteo Giornale » Osservazioni meteo Marocco » Rabat-Sale
ore: 15:30 - Osservazioni Meteo Rabat-Sale
Lat. 34° 3' N Lon. 6° 46' W Alt. 84 metri s.l.m.
24 °C
Molto Nuvoloso
Temp. 24 Ore
16 °C
26 °C
Ovest
11.1 Km/h
Dew point 22 °C
Umidità 88 %
Visibilità 5 Km
Il sole sorge alle ore 07:00
Il sole tramonta alle ore 19:53
| Data e Ora | Cielo e Fenomeni | T °C | DP °C | Um. % | Pres. hPa | Vis. km | Vento km/h | |
|---|---|---|---|---|---|---|---|---|
| Oggi h: 15:30 | Molto Nuvoloso | 24 | 22 | 88 | 1016 | 5 | O 11.1 | |
| Oggi h: 15:00 | Molto Nuvoloso | 25 | 22 | 83 | 1016 | 5 | O/NO 13 | |
| Oggi h: 14:30 | Molto Nuvoloso | 25 | 23 | 88 | 1016 | 5 | O/NO 13 | |
| Oggi h: 14:00 | Molto Nuvoloso | 26 | 22 | 78 | 1016 | 5 | O/NO 13 | |
| Oggi h: 13:30 | Molto Nuvoloso | 25 | 22 | 83 | 1017 | 5 | O 9.3 | |
| Oggi h: 13:09 | Molto Nuvoloso | 24 | 21 | 83 | 1017 | 5 | O/NO 13 | |
| Oggi h: 13:08 | Molto Nuvoloso | 24 | 21 | 83 | 1017 | 5 | O/NO 13 | |
| Oggi h: 13:06 | Molto Nuvoloso | 24 | 21 | 83 | 1017 | 5 | O/NO 13 | |
| Oggi h: 13:00 | Molto Nuvoloso | 25 | 22 | 83 | 1017 | 5 | O 11.1 | |
| Oggi h: 12:30 | Molto Nuvoloso | 25 | 21 | 78 | 1017 | 5 | O/NO 13 | |
| Oggi h: 12:00 | Molto Nuvoloso | 25 | 21 | 78 | 1017 | 5 | O 13 | |
| Oggi h: 11:35 | Molto Nuvoloso | 25 | 21 | 78 | 1017 | 5 | O 11.1 | |
| Oggi h: 11:34 | Coperto | 25 | 21 | 78 | 1017 | 10 | O 11.1 | |
| Oggi h: 11:30 | Molto Nuvoloso | 25 | 22 | 83 | 1017 | 5 | O 9.3 | |
| Oggi h: 11:00 | Molto Nuvoloso | 24 | 23 | 94 | 1016 | 5 | O/SO 7.4 | |
| Oggi h: 10:30 | Molto Nuvoloso | 25 | 23 | 88 | 1016 | 5 | O/SO 7.4 | |
| Oggi h: 10:00 | Molto Nuvoloso | 25 | 23 | 88 | 1016 | 5 | SO 11.1 | |
| Oggi h: 09:30 | Molto Nuvoloso | 24 | 22 | 88 | 1016 | 5 | SO 9.3 | |
| Oggi h: 09:00 | Nuvoloso | 23 | 23 | 100 | 1016 | 5 | S/SO 7.4 | |
| Oggi h: 08:30 | Nuvoloso | 21 | 21 | 100 | 1015 | 5 | S/SO 7.4 | |
| Oggi h: 08:00 | Nuvoloso | 20 | 20 | 100 | 1015 | 5 | SO 7.4 | |
| Oggi h: 07:30 | Nuvoloso | 17 | 17 | 100 | 1015 | 5 | N 0 | |
| Oggi h: 07:00 | Nuvoloso | 17 | 17 | 100 | 1014 | 5 | N 0 | |
| Oggi h: 06:30 | Nuvoloso | 16 | 16 | 100 | 1014 | 5 | N 0 | |
| Oggi h: 06:00 | Nuvoloso | 16 | 16 | 100 | 1014 | 5 | N 0 | |
| Oggi h: 05:30 | Nuvoloso | 17 | 17 | 100 | 1014 | 5 | N 0 | |
| Oggi h: 05:00 | Nuvoloso | 17 | 17 | 100 | 1015 | 5 | N 0 | |
| Oggi h: 04:30 | Nuvoloso | 17 | 17 | 100 | 1015 | 5 | N 0 | |
| Oggi h: 04:00 | Nuvoloso | 17 | 17 | 100 | 1015 | 5 | N 0 | |
| Oggi h: 03:30 | Nuvoloso | 17 | 17 | 100 | 1015 | 5 | N 0 | |
| Oggi h: 03:00 | Nuvoloso | 18 | 18 | 100 | 1015 | 5 | N 5.5 | |
| Oggi h: 02:30 | Nuvoloso | 17 | 17 | 100 | 1015 | 5 | N 0 | |
| Oggi h: 02:00 | Nuvoloso | 18 | 18 | 100 | 1016 | 5 | N 0 | |
| Oggi h: 01:30 | Nuvoloso | 18 | 18 | 100 | 1016 | 5 | N 0 | |
| Oggi h: 01:00 | Nuvoloso | 18 | 18 | 100 | 1016 | 5 | N 0 | |
| Oggi h: 00:30 | Nuvoloso | 18 | 18 | 100 | 1017 | 5 | N 0 | |
| Oggi h: 00:00 | Nuvoloso | 19 | 19 | 100 | 1016 | 5 | N 0 | |
| Ieri h: 23:30 | Nuvoloso | 20 | 20 | 100 | 1016 | 5 | N 0 | |
| Ieri h: 23:00 | Nuvoloso | 20 | 20 | 100 | 1016 | 6 | N 0 | |
| Ieri h: 22:30 | Nuvoloso | 21 | 20 | 94 | 1016 | 6 | N 0 | |
| Ieri h: 22:00 | Nuvoloso | 22 | 21 | 94 | 1016 | 6 | N 0 | |
| Ieri h: 21:30 | Nuvoloso | 23 | 21 | 88 | 1016 | 6 | NO 7.4 | |
| Ieri h: 21:00 | Nuvoloso | 23 | 22 | 94 | 1015 | 6 | N 7.4 | |
| Ieri h: 20:30 | Nuvoloso | 22 | 21 | 94 | 1016 | 6 | N 0 | |
| Ieri h: 20:00 | Nuvoloso | 23 | 22 | 94 | 1016 | 6 | N 9.3 | |
| Ieri h: 19:30 | Molto Nuvoloso | 24 | 22 | 88 | 1016 | 6 | NO 11.1 | |
| Ieri h: 19:00 | Molto Nuvoloso | 24 | 22 | 88 | 1015 | 6 | N 9.3 | |
| Ieri h: 18:30 | Molto Nuvoloso | 25 | 22 | 83 | 1015 | 6 | N 9.3 | |
| Ieri h: 18:00 | Molto Nuvoloso | 25 | 22 | 83 | 1015 | 6 | N 13 | |
| Ieri h: 17:30 | Nuvoloso | 26 | 21 | 73 | 1015 | 6 | N/NO 11.1 | |
| Ieri h: 17:00 | Nuvoloso | 26 | 21 | 73 | 1015 | 6 | NO 14.8 | |



